Time;durP1;ratioP1;P1;durP2;ratioP2;P2;SDS_P1;SDS_P2;PMS_P1;PMS_P2;Temp;Humidity;BMP_temperature;BMP_pressure;BME280_temperature;BME280_humidity;BME280_pressure;Samples;Min_cycle;Max_cycle;Signal;HPM_P1;HPM_P2
2021/11/25 00:00:13;;;;;;;21.60;10.52;;;;;;;0.31;100.00;96554.69;2097638;28;20567;-78
2021/11/25 00:01:14;;;;;;;21.73;9.88;;;;;;;0.31;100.00;96550.16;2098311;28;20028;-78
2021/11/25 00:02:14;;;;;;;20.98;10.10;;;;;;;0.32;99.85;96548.31;2097635;28;20028;-78
2021/11/25 00:03:14;;;;;;;23.00;10.03;;;;;;;0.32;100.00;96543.78;2089495;28;20024;-79
2021/11/25 00:04:15;;;;;;;22.40;10.43;;;;;;;0.18;100.00;96547.34;2098031;28;20039;-79
2021/11/25 00:05:16;;;;;;;20.38;9.35;;;;;;;0.15;100.00;96548.66;2097748;28;20485;-79
2021/11/25 00:06:17;;;;;;;20.73;9.60;;;;;;;0.12;100.00;96543.91;2089826;28;20029;-79
2021/11/25 00:07:17;;;;;;;21.60;10.20;;;;;;;0.14;100.00;96541.78;2097992;28;20052;-79
2021/11/25 00:08:18;;;;;;;21.20;9.93;;;;;;;0.18;100.00;96542.00;2098579;28;20147;-79
2021/11/25 00:09:18;;;;;;;22.55;10.43;;;;;;;0.19;100.00;96546.28;2098258;28;20024;-80
2021/11/25 00:10:19;;;;;;;19.50;9.27;;;;;;;0.20;100.00;96540.69;2097559;28;20448;-78
2021/11/25 00:11:19;;;;;;;20.53;9.37;;;;;;;0.22;100.00;96546.50;2097497;28;20103;-78
2021/11/25 00:12:19;;;;;;;19.92;9.98;;;;;;;0.24;100.00;96543.56;2097607;28;20047;-78
2021/11/25 00:13:20;;;;;;;20.17;9.83;;;;;;;0.24;100.00;96544.38;2098043;28;20032;-78
2021/11/25 00:14:20;;;;;;;20.10;9.50;;;;;;;0.25;100.00;96537.97;2097443;28;20028;-79
2021/11/25 00:15:21;;;;;;;21.67;10.23;;;;;;;0.26;100.00;96541.44;2097712;28;20025;-79
2021/11/25 00:16:22;;;;;;;20.90;9.90;;;;;;;0.26;100.00;96539.56;2097321;28;20024;-79
2021/11/25 00:17:22;;;;;;;20.67;10.17;;;;;;;0.24;100.00;96532.91;2097465;28;20065;-79
2021/11/25 00:18:24;;;;;;;20.83;9.68;;;;;;;0.27;100.00;96540.38;2097396;28;20485;-78
2021/11/25 00:19:24;;;;;;;21.00;9.97;;;;;;;0.29;100.00;96538.19;2089149;28;20107;-78
2021/11/25 00:20:24;;;;;;;22.30;10.32;;;;;;;0.28;100.00;96534.78;2088980;28;20289;-78
2021/11/25 00:21:25;;;;;;;21.37;10.27;;;;;;;0.18;100.00;96537.50;2097379;28;20035;-79
2021/11/25 00:22:26;;;;;;;21.57;10.13;;;;;;;0.10;100.00;96538.06;2097310;28;20063;-79
2021/11/25 00:23:26;;;;;;;22.83;9.85;;;;;;;-0.01;100.00;96537.34;2089029;28;20021;-79
2021/11/25 00:24:26;;;;;;;22.57;9.93;;;;;;;0.04;100.00;96533.06;2088848;28;20033;-79
2021/11/25 00:25:27;;;;;;;22.63;10.80;;;;;;;0.05;100.00;96524.81;2088706;28;20032;-79
2021/11/25 00:26:27;;;;;;;21.33;9.97;;;;;;;0.11;100.00;96539.66;2097030;28;20032;-79
2021/11/25 00:27:27;;;;;;;21.20;9.98;;;;;;;0.10;100.00;96534.59;2085575;28;20286;-79
2021/11/25 00:28:27;;;;;;;20.33;9.10;;;;;;;0.15;100.00;96531.91;2088776;28;20025;-79
2021/11/25 00:29:28;;;;;;;21.60;10.30;;;;;;;0.14;100.00;96525.81;2088773;28;20021;-79
2021/11/25 00:30:29;;;;;;;20.77;10.02;;;;;;;0.03;100.00;96529.59;2088707;28;20021;-79
2021/11/25 00:31:30;;;;;;;21.50;9.70;;;;;;;0.10;100.00;96523.97;2082020;28;20459;-79
2021/11/25 00:32:30;;;;;;;19.23;9.40;;;;;;;0.11;100.00;96517.56;2090601;28;20020;-79
2021/11/25 00:33:31;;;;;;;23.23;10.77;;;;;;;0.10;100.00;96518.66;2090394;28;20029;-79
2021/11/25 00:34:32;;;;;;;24.77;10.90;;;;;;;0.00;100.00;96514.97;2082370;28;20023;-79
2021/11/25 00:35:32;;;;;;;22.07;9.63;;;;;;;0.00;100.00;96522.19;2082156;28;20470;-79
2021/11/25 00:36:33;;;;;;;23.75;10.70;;;;;;;-0.01;100.00;96523.25;2090460;28;20024;-79
2021/11/25 00:37:33;;;;;;;23.07;9.77;;;;;;;0.04;100.00;96515.22;2090495;28;20032;-79
2021/11/25 00:38:34;;;;;;;22.80;10.82;;;;;;;0.10;100.00;96514.13;2090379;28;20466;-79
2021/11/25 00:39:34;;;;;;;21.50;9.77;;;;;;;0.12;100.00;96514.66;2090295;28;20411;-79
2021/11/25 00:40:35;;;;;;;21.23;9.47;;;;;;;0.06;100.00;96514.97;2090372;28;20067;-79
2021/11/25 00:41:35;;;;;;;22.20;9.55;;;;;;;0.03;100.00;96510.97;2090338;28;20028;-79
2021/11/25 00:42:35;;;;;;;21.07;9.30;;;;;;;0.09;100.00;96504.53;2090440;28;20486;-79
2021/11/25 00:43:36;;;;;;;23.03;10.03;;;;;;;0.13;100.00;96507.47;2090368;28;20037;-78
2021/11/25 00:44:36;;;;;;;22.37;10.00;;;;;;;0.16;100.00;96507.69;2090513;28;20036;-78
2021/11/25 00:45:36;;;;;;;21.73;9.70;;;;;;;0.16;100.00;96510.34;2090303;28;20028;-78
2021/11/25 00:46:37;;;;;;;22.73;10.17;;;;;;;0.16;100.00;96507.69;2090432;28;20081;-78
2021/11/25 00:47:37;;;;;;;21.87;10.13;;;;;;;0.14;100.00;96512.50;2090454;28;20044;-80
2021/11/25 00:48:38;;;;;;;22.45;9.88;;;;;;;0.17;100.00;96505.81;2087052;28;20060;-80
2021/11/25 00:49:38;;;;;;;21.77;9.87;;;;;;;0.21;100.00;96506.88;2098833;28;20367;-79
2021/11/25 00:50:39;;;;;;;23.50;10.60;;;;;;;0.23;100.00;96510.03;2098428;28;20453;-79
2021/11/25 00:51:39;;;;;;;20.23;9.20;;;;;;;0.23;100.00;96513.50;2098647;28;20032;-80
2021/11/25 00:52:40;;;;;;;21.17;10.27;;;;;;;0.24;100.00;96511.63;2098648;28;20086;-80
2021/11/25 00:53:41;;;;;;;22.40;10.73;;;;;;;0.23;100.00;96510.84;2090345;28;20116;-79
2021/11/25 00:54:41;;;;;;;21.43;10.13;;;;;;;0.25;100.00;96508.69;2090250;28;20121;-79
2021/11/25 00:55:43;;;;;;;20.70;9.90;;;;;;;0.19;100.00;96509.81;2090462;28;20024;-80
2021/11/25 00:56:43;;;;;;;24.35;10.50;;;;;;;0.18;100.00;96510.09;2090755;28;20017;-80
2021/11/25 00:57:43;;;;;;;22.03;10.10;;;;;;;0.19;100.00;96509.81;2092575;28;20025;-80
2021/11/25 00:58:44;;;;;;;20.90;9.23;;;;;;;0.23;100.00;96505.50;2099272;28;20020;-79
2021/11/25 00:59:44;;;;;;;22.30;9.70;;;;;;;0.20;100.00;96500.75;2090360;28;20418;-79
2021/11/25 01:00:44;;;;;;;22.87;10.20;;;;;;;0.23;100.00;96502.84;2090236;28;20025;-79
2021/11/25 01:01:45;;;;;;;22.33;9.57;;;;;;;0.25;100.00;96499.91;2090282;28;20433;-79
2021/11/25 01:02:45;;;;;;;20.45;9.57;;;;;;;0.26;100.00;96504.97;2090415;28;20032;-79
2021/11/25 01:03:46;;;;;;;22.93;9.90;;;;;;;0.28;100.00;96502.84;2098887;28;20328;-79
2021/11/25 01:04:46;;;;;;;20.38;9.20;;;;;;;0.29;100.00;96509.72;2099388;28;20175;-79
2021/11/25 01:05:47;;;;;;;22.20;10.13;;;;;;;0.28;100.00;96515.34;2098875;28;20542;-78
2021/11/25 01:06:47;;;;;;;23.17;10.23;;;;;;;0.29;100.00;96508.94;2089984;28;20027;-78
2021/11/25 01:07:48;;;;;;;20.20;9.77;;;;;;;0.31;100.00;96509.44;2098480;28;20024;-78
2021/11/25 01:08:48;;;;;;;21.67;10.47;;;;;;;0.22;100.00;96503.91;2098314;28;20016;-78
2021/11/25 01:09:49;;;;;;;20.80;9.43;;;;;;;0.14;100.00;96509.06;2098502;28;20024;-78
2021/11/25 01:10:50;;;;;;;23.55;10.93;;;;;;;0.14;100.00;96503.72;2098099;28;20032;-78
2021/11/25 01:11:50;;;;;;;23.57;11.00;;;;;;;0.15;100.00;96500.78;2089876;28;20025;-78
2021/11/25 01:12:53;;;;;;;22.43;10.53;;;;;;;0.18;100.00;96500.22;2098440;28;20174;-78
2021/11/25 01:13:53;;;;;;;21.02;9.80;;;;;;;0.22;100.00;96500.47;2098310;28;20115;-78
2021/11/25 01:14:54;;;;;;;23.42;10.70;;;;;;;0.09;100.00;96493.09;2098222;28;20020;-79
2021/11/25 01:15:54;;;;;;;22.63;10.95;;;;;;;0.14;100.00;96499.22;2098428;28;20035;-79
2021/11/25 01:16:55;;;;;;;22.07;10.10;;;;;;;0.19;100.00;96495.72;2090193;28;20120;-79
2021/11/25 01:17:58;;;;;;;22.70;10.63;;;;;;;0.22;100.00;96489.81;2098577;28;20082;-79
2021/11/25 01:18:58;;;;;;;23.98;10.48;;;;;;;0.25;100.00;96491.94;2098330;28;20458;-80
2021/11/25 01:19:59;;;;;;;22.40;10.40;;;;;;;0.26;100.00;96491.66;2098535;28;20535;-78
2021/11/25 01:20:59;;;;;;;20.63;9.43;;;;;;;0.28;100.00;96491.41;2098886;28;20032;-79
2021/11/25 01:22:00;;;;;;;23.10;10.82;;;;;;;0.29;100.00;96490.28;2098642;28;20134;-79
2021/11/25 01:23:03;;;;;;;20.17;9.73;;;;;;;0.31;100.00;96485.50;2098533;28;20493;-79
2021/11/25 01:24:03;;;;;;;23.23;10.52;;;;;;;0.31;100.00;96490.81;2098667;28;20036;-80
2021/11/25 01:25:05;;;;;;;21.90;9.55;;;;;;;0.32;100.00;96479.91;2098598;28;20029;-79
2021/11/25 01:26:05;;;;;;;20.30;9.43;;;;;;;0.33;100.00;96478.03;2098780;28;20335;-79
2021/11/25 01:27:05;;;;;;;21.52;10.30;;;;;;;0.33;100.00;96480.69;2098565;28;20360;-80
2021/11/25 01:28:12;;;;;;;23.90;10.57;;;;;;;0.32;100.00;96482.56;2098686;28;20055;-79
2021/11/25 01:29:14;;;;;;;22.25;10.25;;;;;;;0.32;100.00;96481.78;2098685;28;20446;-80
2021/11/25 01:30:15;;;;;;;19.98;9.07;;;;;;;0.33;100.00;96480.69;2090167;28;20557;-79
2021/11/25 01:31:15;;;;;;;20.95;9.82;;;;;;;0.33;100.00;96481.50;2098750;28;20044;-79
2021/11/25 01:32:15;;;;;;;19.30;9.37;;;;;;;0.33;100.00;96476.19;2098346;28;20055;-79
2021/11/25 01:33:17;;;;;;;20.60;9.50;;;;;;;0.35;100.00;96479.38;2098842;28;20132;-80
2021/11/25 01:34:17;;;;;;;22.23;10.02;;;;;;;0.34;100.00;96474.31;2099302;28;20111;-79
2021/11/25 01:35:18;;;;;;;21.90;10.80;;;;;;;0.34;100.00;96467.13;2098504;28;20036;-79
2021/11/25 01:36:18;;;;;;;22.13;10.50;;;;;;;0.35;100.00;96476.69;2090045;28;20060;-79
2021/11/25 01:37:21;;;;;;;21.93;10.43;;;;;;;0.35;100.00;96476.69;2089984;28;20021;-79
2021/11/25 01:38:22;;;;;;;21.77;10.60;;;;;;;0.28;100.00;96465.56;2098333;28;20501;-80
2021/11/25 01:39:22;;;;;;;22.80;10.40;;;;;;;0.31;100.00;96469.53;2090021;28;20139;-79
2021/11/25 01:40:22;;;;;;;22.83;10.43;;;;;;;0.33;100.00;96473.50;2089908;28;20028;-80
2021/11/25 01:41:23;;;;;;;20.43;9.57;;;;;;;0.34;100.00;96469.78;2090366;28;20036;-80
2021/11/25 01:42:23;;;;;;;22.53;9.90;;;;;;;0.23;100.00;96468.25;2098574;28;20425;-80
2021/11/25 01:43:26;;;;;;;20.92;10.75;;;;;;;0.25;100.00;96471.44;2098625;28;20024;-80
2021/11/25 01:44:26;;;;;;;22.05;10.27;;;;;;;0.28;100.00;96472.75;2090439;28;20029;-80
2021/11/25 01:45:27;;;;;;;21.30;9.47;;;;;;;0.29;100.00;96471.66;2098570;28;20084;-80
2021/11/25 01:46:28;;;;;;;21.67;10.25;;;;;;;0.28;100.00;96470.91;2099381;28;20481;-80
2021/11/25 01:47:28;;;;;;;22.27;10.50;;;;;;;0.28;99.97;96470.91;2099888;28;20476;-81
2021/11/25 01:48:28;;;;;;;21.83;10.55;;;;;;;0.28;100.00;96470.91;2087290;28;20462;-80
2021/11/25 01:49:29;;;;;;;22.70;10.02;;;;;;;0.29;99.78;96469.81;2083464;28;20022;-81
2021/11/25 01:50:31;;;;;;;22.30;10.23;;;;;;;0.30;99.74;96462.63;2082522;28;20375;-80
2021/11/25 01:51:31;;;;;;;22.00;9.57;;;;;;;0.31;99.82;96472.19;2082586;28;20029;-80
2021/11/25 01:52:32;;;;;;;19.63;9.15;;;;;;;0.31;99.64;96467.66;2083417;28;20029;-80
2021/11/25 01:53:32;;;;;;;22.40;10.70;;;;;;;0.30;100.00;96470.59;2082925;28;20025;-81
2021/11/25 01:54:33;;;;;;;21.87;10.83;;;;;;;0.33;100.00;96470.06;2092107;28;20190;-80
2021/11/25 01:55:33;;;;;;;21.70;10.05;;;;;;;0.32;100.00;96471.13;2092391;28;20063;-81
2021/11/25 01:56:34;;;;;;;21.60;9.97;;;;;;;0.33;100.00;96468.19;2090929;28;20414;-80
2021/11/25 01:57:34;;;;;;;22.23;9.93;;;;;;;0.27;100.00;96463.19;2091886;28;20078;-81
2021/11/25 01:58:35;;;;;;;23.27;10.50;;;;;;;0.31;100.00;96461.53;2090945;28;20033;-81
2021/11/25 01:59:36;;;;;;;23.35;10.98;;;;;;;0.31;100.00;96461.53;2091523;28;20111;-80
2021/11/25 02:00:47;;;;;;;23.77;11.10;;;;;;;0.33;100.00;96459.41;2082652;28;20116;-81
2021/11/25 02:01:48;;;;;;;23.55;10.70;;;;;;;0.24;100.00;96458.41;2084460;28;20021;-81
2021/11/25 02:02:48;;;;;;;23.23;10.50;;;;;;;0.26;100.00;96458.94;2083531;28;20028;-80
2021/11/25 02:03:50;;;;;;;21.63;9.90;;;;;;;0.31;100.00;96456.22;2081773;28;20022;-80
2021/11/25 02:04:51;;;;;;;22.90;10.60;;;;;;;0.31;100.00;96456.22;2089712;28;20029;-79
2021/11/25 02:05:52;;;;;;;22.03;10.00;;;;;;;0.34;100.00;96459.13;2081769;28;20025;-80
2021/11/25 02:06:52;;;;;;;22.70;10.38;;;;;;;0.34;100.00;96461.00;2089726;28;20398;-79
2021/11/25 02:07:52;;;;;;;20.70;9.87;;;;;;;0.33;100.00;96454.88;2089923;28;20032;-79
2021/11/25 02:08:53;;;;;;;20.03;10.03;;;;;;;0.36;100.00;96448.19;2089810;28;20021;-79
2021/11/25 02:09:53;;;;;;;22.27;10.15;;;;;;;0.32;100.00;96449.84;2081691;28;20037;-80
2021/11/25 02:10:57;;;;;;;21.92;10.32;;;;;;;0.29;100.00;96453.03;2089950;28;20031;-80
2021/11/25 02:11:58;;;;;;;22.73;10.57;;;;;;;0.32;100.00;96452.50;2089679;28;20017;-80
2021/11/25 02:12:58;;;;;;;22.87;10.30;;;;;;;0.31;100.00;96449.03;2089975;28;20025;-80
2021/11/25 02:13:59;;;;;;;23.13;10.43;;;;;;;0.31;100.00;96438.38;2089998;28;20020;-80
2021/11/25 02:14:59;;;;;;;22.50;10.27;;;;;;;0.32;100.00;96439.19;2090079;28;20067;-80
2021/11/25 02:16:00;;;;;;;21.77;9.82;;;;;;;0.32;100.00;96439.97;2081699;28;20128;-80
2021/11/25 02:17:00;;;;;;;23.27;10.40;;;;;;;0.32;100.00;96439.97;2090109;28;20025;-80
2021/11/25 02:18:03;;;;;;;25.52;10.88;;;;;;;0.26;100.00;96441.09;2089774;28;20421;-80
2021/11/25 02:19:04;;;;;;;22.58;10.13;;;;;;;0.30;100.00;96436.78;2089995;28;20048;-80
2021/11/25 02:20:07;;;;;;;22.67;10.15;;;;;;;0.31;100.00;96433.06;2089727;28;20116;-79
2021/11/25 02:21:08;;;;;;;22.42;9.98;;;;;;;0.33;100.00;96430.13;2089968;28;20025;-80
2021/11/25 02:22:08;;;;;;;21.77;10.20;;;;;;;0.34;100.00;96431.72;2081403;28;20053;-80
2021/11/25 02:23:11;;;;;;;21.20;10.40;;;;;;;0.34;100.00;96424.53;2089950;28;20025;-80
2021/11/25 02:24:11;;;;;;;22.55;10.95;;;;;;;0.33;100.00;96425.59;2090403;28;20025;-78
2021/11/25 02:25:14;;;;;;;21.63;9.90;;;;;;;0.33;100.00;96424.81;2089651;28;20028;-78
2021/11/25 02:26:14;;;;;;;21.00;10.23;;;;;;;0.33;100.00;96420.28;2081500;28;20427;-78
2021/11/25 02:27:21;;;;;;;21.30;9.73;;;;;;;0.32;100.00;96426.69;2081235;28;20056;-78
2021/11/25 02:28:24;;;;;;;21.80;10.25;;;;;;;0.32;100.00;96426.69;2082135;28;20033;-78
2021/11/25 02:29:25;;;;;;;22.15;10.80;;;;;;;0.27;100.00;96428.59;2081664;28;20025;-78
2021/11/25 02:30:25;;;;;;;22.23;10.27;;;;;;;0.14;100.00;96424.72;2089361;28;20025;-78
2021/11/25 02:31:25;;;;;;;21.95;10.05;;;;;;;0.15;100.00;96439.56;2090332;28;20033;-78
2021/11/25 02:32:33;;;;;;;21.77;10.25;;;;;;;0.21;100.00;96432.38;2089405;28;20068;-78
2021/11/25 02:33:37;;;;;;;20.95;10.02;;;;;;;0.16;100.00;96435.84;2089825;28;20063;-78
2021/11/25 02:34:37;;;;;;;23.57;10.87;;;;;;;0.18;100.00;96420.41;2090378;28;20040;-79
2021/11/25 02:35:39;;;;;;;24.10;11.43;;;;;;;0.22;100.00;96424.09;2089973;28;20315;-79
2021/11/25 02:36:39;;;;;;;20.50;9.68;;;;;;;0.25;100.00;96420.09;2081717;28;20022;-78
2021/11/25 02:37:40;;;;;;;22.63;10.53;;;;;;;0.26;100.00;96419.81;2089780;28;20032;-79
2021/11/25 02:38:41;;;;;;;23.97;10.90;;;;;;;0.29;100.00;96421.09;2090406;28;20035;-78
2021/11/25 02:39:41;;;;;;;23.25;10.80;;;;;;;0.29;100.00;96424.56;2089704;28;20036;-79
2021/11/25 02:40:45;;;;;;;21.73;9.93;;;;;;;0.29;100.00;96418.44;2089695;28;20549;-78
2021/11/25 02:41:46;;;;;;;22.25;10.15;;;;;;;0.31;100.00;96419.75;2090035;28;20025;-79
2021/11/25 02:42:50;;;;;;;24.00;10.50;;;;;;;0.31;100.00;96414.44;2081373;28;20033;-79
2021/11/25 02:43:53;;;;;;;21.70;10.45;;;;;;;0.32;100.00;96423.22;2081742;28;20056;-79
2021/11/25 02:44:53;;;;;;;19.60;9.93;;;;;;;0.33;100.00;96417.63;2090184;28;20033;-79
2021/11/25 02:45:56;;;;;;;25.23;10.73;;;;;;;0.33;100.00;96414.16;2090923;28;20470;-79
2021/11/25 02:47:00;;;;;;;24.10;10.38;;;;;;;0.34;100.00;96413.88;2090366;28;20462;-78
2021/11/25 02:48:00;;;;;;;23.42;10.25;;;;;;;0.22;100.00;96420.63;2089946;28;20040;-79
2021/11/25 02:49:02;;;;;;;22.80;10.40;;;;;;;0.23;100.00;96423.03;2091121;28;20077;-79
2021/11/25 02:50:03;;;;;;;20.92;9.73;;;;;;;0.26;100.00;96421.69;2081980;28;20059;-78
2021/11/25 02:51:05;;;;;;;21.48;10.23;;;;;;;0.28;100.00;96409.69;2081965;28;20029;-78
2021/11/25 02:52:05;;;;;;;22.88;10.38;;;;;;;0.29;100.00;96416.56;2091496;28;20033;-78
2021/11/25 02:53:08;;;;;;;22.10;10.43;;;;;;;0.31;100.00;96409.13;2089519;28;20032;-79
2021/11/25 02:54:08;;;;;;;24.13;9.65;;;;;;;0.32;100.00;96407.25;2090135;28;20029;-78
2021/11/25 02:55:09;;;;;;;22.02;10.93;;;;;;;0.28;100.00;96406.22;2090010;28;20029;-79
2021/11/25 02:56:12;;;;;;;23.17;11.38;;;;;;;0.32;100.00;96404.59;2081729;28;20029;-79
2021/11/25 02:57:13;;;;;;;22.67;10.13;;;;;;;0.29;100.00;96415.78;2082315;28;20032;-79
2021/11/25 02:58:13;;;;;;;22.45;10.55;;;;;;;0.27;100.00;96402.78;2090102;28;20029;-79
2021/11/25 02:59:14;;;;;;;22.50;10.77;;;;;;;0.29;100.00;96397.94;2081992;28;20422;-79
2021/11/25 03:00:19;;;;;;;20.67;10.00;;;;;;;0.32;100.00;96400.06;2073899;28;20032;-79
2021/11/25 03:01:24;;;;;;;23.15;10.57;;;;;;;0.16;100.00;96400.47;2090151;28;20021;-79
2021/11/25 03:02:25;;;;;;;23.27;10.73;;;;;;;0.15;100.00;96393.53;2091183;28;20110;-80
2021/11/25 03:03:25;;;;;;;23.40;10.73;;;;;;;0.24;100.00;96394.53;2089922;28;20029;-79
2021/11/25 03:04:26;;;;;;;23.33;10.40;;;;;;;0.26;100.00;96393.19;2090718;28;20028;-79
2021/11/25 03:05:27;;;;;;;22.03;10.27;;;;;;;0.27;100.00;96396.66;2090523;28;20025;-79
2021/11/25 03:06:27;;;;;;;22.60;9.70;;;;;;;0.28;100.00;96388.41;2090456;28;20094;-80
2021/11/25 03:07:28;;;;;;;22.03;10.20;;;;;;;0.29;100.00;96389.16;2091896;28;20036;-79
2021/11/25 03:08:28;;;;;;;23.25;10.52;;;;;;;0.31;100.00;96400.34;2090735;28;20047;-79
2021/11/25 03:09:28;;;;;;;24.58;10.50;;;;;;;0.30;100.00;96388.91;2092161;28;20351;-79
2021/11/25 03:10:38;;;;;;;22.40;10.60;;;;;;;0.31;100.00;96393.16;2090166;28;20107;-79
2021/11/25 03:11:38;;;;;;;23.45;10.57;;;;;;;0.31;100.00;96387.81;2090635;28;20409;-79
2021/11/25 03:12:38;;;;;;;22.90;10.73;;;;;;;0.32;100.00;96389.41;2091422;28;20048;-78
2021/11/25 03:13:44;;;;;;;24.07;10.43;;;;;;;0.31;100.00;96382.50;2091293;28;20083;-79
2021/11/25 03:14:44;;;;;;;23.08;10.88;;;;;;;0.32;100.00;96391.28;2091128;28;20025;-78
2021/11/25 03:15:45;;;;;;;23.80;10.53;;;;;;;0.32;100.00;96391.28;2090183;28;20029;-79
2021/11/25 03:16:46;;;;;;;23.50;10.38;;;;;;;0.32;100.00;96386.75;2091243;28;20378;-78
2021/11/25 03:17:46;;;;;;;22.65;10.10;;;;;;;0.33;100.00;96385.69;2091566;28;20033;-79
2021/11/25 03:18:48;;;;;;;22.80;11.07;;;;;;;0.34;100.00;96383.81;2089978;28;20017;-78
2021/11/25 03:19:48;;;;;;;22.27;9.93;;;;;;;0.32;100.00;96386.75;2083028;28;20033;-79
2021/11/25 03:20:53;;;;;;;23.52;11.35;;;;;;;0.28;100.00;96393.72;2082545;28;20255;-80
2021/11/25 03:21:53;;;;;;;23.05;10.05;;;;;;;0.31;100.00;96393.16;2090296;28;20025;-79
2021/11/25 03:22:54;;;;;;;23.57;10.30;;;;;;;0.32;100.00;96389.41;2091359;28;20025;-80
2021/11/25 03:23:56;;;;;;;22.80;10.10;;;;;;;0.20;100.00;96393.53;2081580;28;20506;-80
2021/11/25 03:24:56;;;;;;;23.50;10.90;;;;;;;0.25;100.00;96388.94;2090677;28;20029;-80
2021/11/25 03:25:58;;;;;;;22.73;10.32;;;;;;;0.27;100.00;96386.81;2081866;28;20627;-80
2021/11/25 03:26:58;;;;;;;21.45;9.95;;;;;;;0.27;100.00;96386.81;2081610;28;20478;-79
2021/11/25 03:27:59;;;;;;;22.70;10.37;;;;;;;0.24;100.00;96382.03;2082497;28;20033;-79
2021/11/25 03:29:00;;;;;;;24.55;11.07;;;;;;;0.26;100.00;96385.22;2081441;28;20093;-80
2021/11/25 03:30:01;;;;;;;23.55;10.52;;;;;;;0.19;100.00;96378.63;2090175;28;20025;-80
2021/11/25 03:31:01;;;;;;;25.10;10.90;;;;;;;0.01;100.00;96374.78;2090509;28;20108;-80
2021/11/25 03:32:02;;;;;;;25.00;11.00;;;;;;;0.00;100.00;96373.97;2089982;28;20083;-80
2021/11/25 03:33:04;;;;;;;24.92;11.23;;;;;;;0.01;100.00;96374.78;2090575;28;20032;-80
2021/11/25 03:34:04;;;;;;;23.43;10.60;;;;;;;0.04;100.00;96376.88;2089801;28;20028;-80
2021/11/25 03:35:07;;;;;;;23.05;10.75;;;;;;;0.08;100.00;96375.25;2081932;28;20259;-80
2021/11/25 03:36:08;;;;;;;25.33;10.77;;;;;;;0.10;100.00;96381.09;2090532;28;20036;-80
2021/11/25 03:37:09;;;;;;;26.27;10.73;;;;;;;0.12;100.00;96378.97;2081854;28;20091;-80
2021/11/25 03:38:09;;;;;;;25.88;11.82;;;;;;;0.15;100.00;96377.59;2082554;28;20258;-79
2021/11/25 03:39:10;;;;;;;23.63;11.37;;;;;;;0.16;100.00;96376.50;2081569;28;20097;-79
2021/11/25 03:40:11;;;;;;;24.47;10.73;;;;;;;0.17;100.00;96378.09;2090181;28;20029;-79
2021/11/25 03:41:13;;;;;;;22.08;10.60;;;;;;;0.13;100.00;96374.44;2089526;28;20025;-79
2021/11/25 03:42:13;;;;;;;24.17;11.43;;;;;;;0.11;100.00;96376.56;2081185;28;20025;-80
2021/11/25 03:43:14;;;;;;;23.40;10.63;;;;;;;0.13;100.00;96375.22;2089638;28;20032;-79
2021/11/25 03:44:14;;;;;;;22.40;10.13;;;;;;;0.07;100.00;96370.22;2089366;28;20135;-80
2021/11/25 03:45:15;;;;;;;22.90;10.93;;;;;;;0.06;100.00;96369.44;2089275;28;20029;-80
2021/11/25 03:46:15;;;;;;;24.80;10.87;;;;;;;0.07;100.00;96373.69;2089786;28;20025;-80
2021/11/25 03:47:16;;;;;;;22.27;10.10;;;;;;;0.13;100.00;96371.75;2089362;28;20312;-80
2021/11/25 03:48:16;;;;;;;24.87;10.93;;;;;;;0.07;100.00;96372.88;2081108;28;20028;-80
2021/11/25 03:49:17;;;;;;;25.23;11.07;;;;;;;0.07;100.00;96371.03;2081371;28;20521;-80
2021/11/25 03:50:17;;;;;;;23.20;10.20;;;;;;;0.13;100.00;96372.56;2089555;28;20514;-80
2021/11/25 03:51:18;;;;;;;23.50;10.23;;;;;;;0.17;100.00;96372.78;2089712;28;20071;-80
2021/11/25 03:52:18;;;;;;;24.77;11.38;;;;;;;0.19;100.00;96366.13;2081396;28;20106;-79
2021/11/25 03:53:18;;;;;;;22.33;10.30;;;;;;;0.19;100.00;96370.66;2081238;28;20083;-80
2021/11/25 03:54:19;;;;;;;22.30;10.40;;;;;;;0.15;100.00;96377.59;2089645;28;20382;-80
2021/11/25 03:55:19;;;;;;;22.27;9.90;;;;;;;0.14;100.00;96373.34;2089555;28;20024;-80
2021/11/25 03:56:20;;;;;;;23.77;10.70;;;;;;;0.16;100.00;96377.31;2089648;28;20017;-79
2021/11/25 03:57:25;;;;;;;22.50;10.60;;;;;;;0.17;100.00;96376.25;2089621;28;20032;-79
2021/11/25 03:58:25;;;;;;;22.43;10.03;;;;;;;0.10;100.00;96377.63;2089755;28;20028;-80
2021/11/25 03:59:26;;;;;;;22.75;10.82;;;;;;;0.04;100.00;96378.75;2082388;28;20298;-80
2021/11/25 04:00:27;;;;;;;22.93;10.73;;;;;;;-0.01;100.00;96372.41;2081521;28;20421;-80
2021/11/25 04:01:27;;;;;;;24.00;10.18;;;;;;;0.00;100.00;96375.88;2082120;28;20414;-80
2021/11/25 04:02:28;;;;;;;22.52;11.05;;;;;;;0.01;100.00;96374.78;2089825;28;20021;-80
2021/11/25 04:03:28;;;;;;;24.73;10.70;;;;;;;-0.03;100.00;96376.41;2089180;28;20025;-79
2021/11/25 04:04:28;;;;;;;24.13;10.73;;;;;;;0.01;100.00;96374.78;2090399;28;20390;-80
2021/11/25 04:05:29;;;;;;;23.47;10.33;;;;;;;0.01;100.00;96372.13;2091278;28;20021;-79
2021/11/25 04:06:29;;;;;;;23.27;10.55;;;;;;;0.05;100.00;96367.84;2091767;28;20050;-80
2021/11/25 04:07:30;;;;;;;24.67;11.53;;;;;;;0.08;100.00;96375.25;2091923;28;20025;-79
2021/11/25 04:08:30;;;;;;;26.07;11.13;;;;;;;0.10;100.00;96370.44;2091403;28;20084;-79
2021/11/25 04:09:30;;;;;;;24.27;10.73;;;;;;;0.11;100.00;96369.38;2094272;28;20025;-79
2021/11/25 04:10:31;;;;;;;23.08;10.77;;;;;;;0.13;100.00;96369.91;2091450;28;20036;-79
2021/11/25 04:11:31;;;;;;;23.30;10.93;;;;;;;0.18;100.00;96371.72;2084225;28;20544;-79
2021/11/25 04:12:32;;;;;;;23.33;10.47;;;;;;;0.16;100.00;96360.56;2092753;28;20108;-79
2021/11/25 04:13:34;;;;;;;23.52;11.23;;;;;;;0.14;100.00;96360.84;2091733;28;20067;-79
2021/11/25 04:14:34;;;;;;;24.80;11.15;;;;;;;0.10;100.00;96351.81;2093433;28;20051;-79
2021/11/25 04:15:35;;;;;;;23.83;10.35;;;;;;;0.01;100.00;96364.13;2091454;28;20119;-79
2021/11/25 04:16:35;;;;;;;27.53;11.83;;;;;;;-0.02;100.00;96362.03;2084041;28;20037;-79
2021/11/25 04:17:36;;;;;;;23.40;10.90;;;;;;;-0.01;100.00;96355.66;2084923;28;20022;-79
2021/11/25 04:18:36;;;;;;;23.88;11.07;;;;;;;0.00;100.00;96359.91;2083209;28;20135;-79
2021/11/25 04:19:36;;;;;;;24.40;11.63;;;;;;;-0.09;100.00;96365.03;2092813;28;20037;-79
2021/11/25 04:20:37;;;;;;;24.03;10.60;;;;;;;-0.15;100.00;96363.50;2091985;28;20463;-79
2021/11/25 04:21:37;;;;;;;25.38;10.73;;;;;;;-0.13;100.00;96366.63;2084003;28;20029;-79
2021/11/25 04:22:38;;;;;;;24.60;11.40;;;;;;;-0.10;100.00;96366.09;2093308;28;20346;-79
2021/11/25 04:23:41;;;;;;;24.47;11.13;;;;;;;-0.08;100.00;96363.16;2091419;28;20047;-79
2021/11/25 04:24:41;;;;;;;24.23;10.73;;;;;;;-0.07;100.00;96365.53;2083965;28;20034;-79
2021/11/25 04:25:42;;;;;;;26.17;11.23;;;;;;;-0.08;100.00;96360.50;2091744;28;20048;-79
2021/11/25 04:26:42;;;;;;;25.03;11.17;;;;;;;-0.11;100.00;96363.72;2091472;28;20027;-79
2021/11/25 04:27:44;;;;;;;25.95;11.02;;;;;;;-0.14;100.00;96356.28;2091999;28;20021;-80
2021/11/25 04:28:44;;;;;;;25.55;10.85;;;;;;;-0.14;100.00;96358.94;2082859;28;20064;-80
2021/11/25 04:29:52;;;;;;;28.77;11.70;;;;;;;-0.17;100.00;96359.50;2083283;28;20018;-80
2021/11/25 04:35:27;;;;;;;26.73;11.85;;;;;;;-0.19;100.00;96357.13;2091313;28;20025;-81
2021/11/25 04:36:09;;;;;;;26.05;10.90;;;;;;;-0.23;100.00;96352.66;2092072;28;20447;-80
2021/11/25 04:37:09;;;;;;;27.30;12.13;;;;;;;-0.21;100.00;96350.47;2091355;28;20055;-80
2021/11/25 04:38:14;;;;;;;26.33;12.03;;;;;;;-0.17;100.00;96348.88;2083706;28;20025;-80
2021/11/25 04:39:14;;;;;;;26.48;10.70;;;;;;;-0.19;100.00;96357.13;2090782;28;20028;-80
2021/11/25 04:40:14;;;;;;;28.10;12.33;;;;;;;-0.21;100.00;96353.94;2082839;28;20200;-80
2021/11/25 04:41:15;;;;;;;26.57;11.97;;;;;;;-0.24;100.00;96351.06;2090422;28;20024;-80
2021/11/25 04:42:17;;;;;;;25.33;11.13;;;;;;;-0.23;100.00;96344.66;2090653;28;20033;-79
2021/11/25 04:43:18;;;;;;;26.52;11.77;;;;;;;-0.26;100.00;96347.88;2091787;28;20044;-79
2021/11/25 04:44:19;;;;;;;25.42;11.15;;;;;;;-0.27;100.00;96349.72;2082672;28;20099;-79
2021/11/25 04:45:20;;;;;;;26.38;11.90;;;;;;;-0.29;100.00;96353.75;2091408;28;20061;-79